Time;durP1;ratioP1;P1;durP2;ratioP2;P2;SDS_P1;SDS_P2;PMS_P1;PMS_P2;Temp;Humidity;BMP_temperature;BMP_pressure;BME280_temperature;BME280_humidity;BME280_pressure;Samples;Min_cycle;Max_cycle;Signal;HPM_P1;HPM_P2
2023/10/01 00:00:46;;;;;;;12.80;7.10;;;9.60;99.90;;;;;;2068701;28;20234;-82
2023/10/01 00:01:51;;;;;;;11.88;7.13;;;9.60;99.90;;;;;;2066963;28;20234;-83
2023/10/01 00:02:53;;;;;;;13.95;8.43;;;9.60;99.90;;;;;;2065493;28;20346;-84
2023/10/01 00:03:55;;;;;;;15.00;7.80;;;9.50;99.90;;;;;;2076543;28;20221;-83
2023/10/01 00:04:57;;;;;;;14.45;7.78;;;9.60;99.90;;;;;;2083890;28;20236;-83
2023/10/01 00:05:58;;;;;;;13.73;7.43;;;9.70;99.90;;;;;;2075194;28;20304;-83
2023/10/01 00:06:59;;;;;;;12.03;6.87;;;9.60;99.90;;;;;;2075141;28;20233;-83
2023/10/01 00:08:01;;;;;;;14.23;7.53;;;9.60;99.90;;;;;;2075852;28;20692;-83
2023/10/01 00:09:08;;;;;;;15.88;7.53;;;9.60;99.90;;;;;;2074832;28;20496;-83
2023/10/01 00:10:11;;;;;;;14.10;7.43;;;9.60;99.90;;;;;;2065716;28;20237;-83
2023/10/01 00:11:11;;;;;;;12.77;7.32;;;9.50;99.90;;;;;;2075110;28;20182;-83
2023/10/01 00:12:12;;;;;;;14.73;7.27;;;9.60;99.90;;;;;;2080405;28;20277;-83
2023/10/01 00:13:14;;;;;;;13.27;7.63;;;9.50;99.90;;;;;;2081568;28;20245;-83
2023/10/01 00:14:16;;;;;;;14.82;7.97;;;9.50;99.90;;;;;;2073889;28;20181;-82
2023/10/01 00:15:19;;;;;;;13.27;7.78;;;9.60;99.90;;;;;;2073944;28;20197;-82
2023/10/01 00:16:20;;;;;;;12.02;7.28;;;9.50;99.90;;;;;;2080150;28;20200;-83
2023/10/01 00:17:23;;;;;;;14.40;7.17;;;9.50;99.90;;;;;;2079144;28;20248;-83
2023/10/01 00:18:25;;;;;;;13.75;7.25;;;9.50;99.90;;;;;;2076586;28;20237;-83
2023/10/01 00:19:27;;;;;;;12.63;7.68;;;9.50;99.90;;;;;;2076591;28;20264;-83
2023/10/01 00:20:29;;;;;;;13.13;7.18;;;9.50;99.90;;;;;;2075212;28;20229;-83
2023/10/01 00:21:30;;;;;;;14.15;7.40;;;9.50;99.90;;;;;;2076096;28;20225;-83
2023/10/01 00:22:33;;;;;;;12.43;6.90;;;9.50;99.90;;;;;;2075531;28;20232;-83
2023/10/01 00:23:34;;;;;;;11.93;7.55;;;9.50;99.90;;;;;;2075129;28;20236;-84
2023/10/01 00:24:35;;;;;;;15.07;7.80;;;9.50;99.90;;;;;;2067611;28;20233;-82
2023/10/01 00:25:35;;;;;;;14.93;8.37;;;9.50;99.90;;;;;;2075650;28;20244;-83
2023/10/01 00:26:37;;;;;;;12.83;7.63;;;9.50;99.90;;;;;;2082524;28;20240;-83
2023/10/01 00:27:38;;;;;;;12.90;6.90;;;9.50;99.90;;;;;;2076153;28;20225;-83
2023/10/01 00:28:39;;;;;;;12.95;7.82;;;9.40;99.90;;;;;;2075747;28;20264;-83
2023/10/01 00:29:39;;;;;;;15.37;7.57;;;9.40;99.90;;;;;;2067742;28;20229;-83
2023/10/01 00:30:41;;;;;;;12.03;6.73;;;9.40;99.90;;;;;;2067149;28;20297;-83
2023/10/01 00:31:41;;;;;;;12.82;7.45;;;9.40;99.90;;;;;;2075497;28;20221;-83
2023/10/01 00:32:42;;;;;;;15.13;7.67;;;9.30;99.90;;;;;;2075037;28;20919;-83
2023/10/01 00:33:49;;;;;;;16.57;7.97;;;9.40;99.90;;;;;;2070468;28;20253;-83
2023/10/01 00:34:50;;;;;;;15.18;7.90;;;9.40;99.90;;;;;;2067090;28;20537;-83
2023/10/01 00:35:54;;;;;;;14.07;8.00;;;9.40;99.90;;;;;;2066597;28;20710;-83
2023/10/01 00:36:54;;;;;;;14.35;7.97;;;9.40;99.90;;;;;;2075049;28;20224;-83
2023/10/01 00:37:55;;;;;;;15.27;8.40;;;9.30;99.90;;;;;;2075225;28;20279;-83
2023/10/01 00:38:56;;;;;;;16.87;8.80;;;9.30;99.90;;;;;;2075377;28;20335;-83
2023/10/01 00:39:59;;;;;;;15.85;7.60;;;9.30;99.90;;;;;;2074890;28;20279;-83
2023/10/01 00:40:59;;;;;;;20.40;9.77;;;9.30;99.90;;;;;;2075383;28;20740;-83
2023/10/01 00:42:00;;;;;;;14.50;7.70;;;9.30;99.90;;;;;;2074614;28;20332;-83
2023/10/01 00:43:04;;;;;;;14.13;7.93;;;9.30;99.90;;;;;;2080087;28;20245;-83
2023/10/01 00:44:05;;;;;;;13.80;8.48;;;9.30;99.90;;;;;;2072870;28;20225;-83
2023/10/01 00:45:08;;;;;;;13.20;7.75;;;9.20;99.90;;;;;;2081742;28;20220;-83
2023/10/01 00:46:08;;;;;;;12.73;8.00;;;9.30;99.90;;;;;;2082194;28;20193;-82
2023/10/01 00:47:10;;;;;;;12.97;7.90;;;9.30;99.90;;;;;;2082009;28;20188;-83
2023/10/01 00:48:14;;;;;;;15.13;8.05;;;9.30;99.90;;;;;;2081989;28;20197;-83
2023/10/01 00:49:17;;;;;;;17.75;7.50;;;9.30;99.90;;;;;;2081637;28;20180;-83
2023/10/01 00:50:23;;;;;;;13.23;8.10;;;9.30;99.90;;;;;;2081394;28;20250;-82
2023/10/01 00:51:24;;;;;;;17.23;7.85;;;9.20;99.90;;;;;;2071232;28;20252;-83
2023/10/01 00:52:24;;;;;;;11.40;7.30;;;9.20;99.90;;;;;;2075291;28;20229;-82
2023/10/01 00:53:25;;;;;;;14.33;7.90;;;9.20;99.90;;;;;;2083676;28;20297;-83
2023/10/01 00:54:28;;;;;;;13.23;7.80;;;9.20;99.90;;;;;;2075197;28;20785;-83
2023/10/01 00:55:29;;;;;;;15.45;8.32;;;9.20;99.90;;;;;;2075363;28;20333;-83
2023/10/01 00:56:30;;;;;;;16.07;8.33;;;9.10;99.90;;;;;;2076014;28;20236;-83
2023/10/01 00:57:30;;;;;;;13.05;7.97;;;9.10;99.90;;;;;;2075912;28;20236;-83
2023/10/01 00:58:31;;;;;;;14.33;7.50;;;9.20;99.90;;;;;;2072995;28;20248;-83
2023/10/01 00:59:33;;;;;;;15.60;7.80;;;9.10;99.90;;;;;;2066480;28;20244;-81
2023/10/01 01:00:34;;;;;;;15.30;7.72;;;9.20;99.90;;;;;;2074859;28;20232;-82
2023/10/01 01:01:35;;;;;;;11.75;7.38;;;9.10;99.90;;;;;;2083327;28;20227;-82
2023/10/01 01:02:42;;;;;;;13.68;6.90;;;9.10;99.90;;;;;;2073700;28;20229;-81
2023/10/01 01:03:52;;;;;;;12.52;7.22;;;9.10;99.90;;;;;;2072910;28;20291;-82
2023/10/01 01:06:17;;;;;;;12.93;7.43;;;9.20;99.90;;;;;;2071312;28;20229;-82
2023/10/01 01:07:20;;;;;;;12.30;7.80;;;9.10;99.90;;;;;;2070617;28;20181;-82
2023/10/01 01:08:21;;;;;;;12.80;7.13;;;9.10;99.90;;;;;;2080042;28;20189;-81
2023/10/01 01:09:22;;;;;;;14.13;7.50;;;9.10;99.90;;;;;;2071247;28;20737;-81
2023/10/01 01:10:26;;;;;;;13.90;7.45;;;9.20;99.90;;;;;;2079909;28;20213;-81
2023/10/01 01:11:26;;;;;;;12.50;6.97;;;9.20;99.90;;;;;;2077392;28;20252;-82
2023/10/01 01:12:27;;;;;;;12.80;7.60;;;9.20;99.90;;;;;;2075512;28;20229;-82
2023/10/01 01:13:33;;;;;;;11.87;6.77;;;9.20;99.90;;;;;;2076298;28;20272;-82
2023/10/01 01:14:35;;;;;;;14.05;7.43;;;9.20;99.90;;;;;;2075143;28;20233;-82
2023/10/01 01:15:38;;;;;;;12.15;6.70;;;9.20;99.90;;;;;;2075219;28;20221;-81
2023/10/01 01:16:40;;;;;;;11.65;6.53;;;9.20;99.90;;;;;;2076040;28;20249;-82
2023/10/01 01:17:41;;;;;;;12.63;7.35;;;9.20;99.90;;;;;;2075365;28;20231;-81
2023/10/01 01:18:42;;;;;;;10.50;7.03;;;9.10;99.90;;;;;;2075239;28;20311;-82
2023/10/01 01:19:50;;;;;;;12.87;7.73;;;9.10;99.90;;;;;;2066791;28;20236;-82
2023/10/01 01:20:57;;;;;;;11.48;7.35;;;9.10;99.90;;;;;;2066524;28;20637;-82
2023/10/01 01:21:58;;;;;;;13.93;6.63;;;9.20;99.90;;;;;;2067365;28;20269;-82
2023/10/01 01:22:59;;;;;;;14.27;7.57;;;9.10;99.90;;;;;;2074729;28;20240;-81
2023/10/01 01:23:59;;;;;;;13.07;7.50;;;9.00;99.90;;;;;;2073715;28;20281;-82
2023/10/01 01:25:00;;;;;;;12.90;7.10;;;8.90;99.90;;;;;;2072163;28;20240;-81
2023/10/01 01:26:02;;;;;;;11.57;7.10;;;8.80;99.90;;;;;;2083108;28;20229;-81
2023/10/01 01:27:06;;;;;;;13.07;7.32;;;8.80;99.90;;;;;;2075925;28;20288;-82
2023/10/01 01:28:12;;;;;;;12.80;7.28;;;8.70;99.90;;;;;;2073731;28;20252;-81
2023/10/01 01:29:29;;;;;;;11.05;7.00;;;8.80;99.90;;;;;;2067315;28;20291;-82
2023/10/01 01:30:29;;;;;;;13.15;7.05;;;8.80;99.90;;;;;;2068053;28;20629;-81
2023/10/01 01:31:45;;;;;;;13.40;7.17;;;8.80;99.90;;;;;;2073665;28;20231;-80
2023/10/01 01:32:53;;;;;;;11.50;6.80;;;8.80;99.90;;;;;;2074619;28;20216;-81
2023/10/01 01:33:56;;;;;;;11.02;7.15;;;8.90;99.90;;;;;;2074021;28;20251;-82
2023/10/01 01:34:56;;;;;;;14.63;8.57;;;8.80;99.90;;;;;;2074020;28;20227;-82
2023/10/01 01:36:05;;;;;;;12.83;7.33;;;8.90;99.90;;;;;;2074132;28;20283;-82
2023/10/01 01:37:06;;;;;;;12.93;7.30;;;8.90;99.90;;;;;;2071371;28;20332;-82
2023/10/01 01:38:07;;;;;;;11.43;6.57;;;8.90;99.90;;;;;;2082233;28;20192;-81
2023/10/01 01:39:32;;;;;;;11.67;7.37;;;8.90;99.90;;;;;;2071386;28;20189;-81
2023/10/01 01:40:36;;;;;;;14.18;7.13;;;9.00;99.90;;;;;;2073409;28;20282;-82
2023/10/01 01:41:42;;;;;;;15.05;7.95;;;8.90;99.90;;;;;;2072332;28;20623;-82
2023/10/01 01:42:44;;;;;;;14.38;7.97;;;8.90;99.90;;;;;;2075197;28;20356;-82
2023/10/01 01:43:46;;;;;;;14.88;8.10;;;8.90;99.90;;;;;;2072729;28;20274;-81
2023/10/01 01:44:48;;;;;;;12.40;7.72;;;9.00;99.90;;;;;;2066793;28;20229;-82
2023/10/01 01:45:54;;;;;;;13.15;7.32;;;8.90;99.90;;;;;;2074400;28;20235;-82
2023/10/01 01:47:00;;;;;;;13.68;7.45;;;8.90;99.90;;;;;;2074759;28;20255;-82
2023/10/01 01:48:00;;;;;;;13.48;7.47;;;8.90;99.90;;;;;;2074463;28;20270;-81
2023/10/01 01:49:02;;;;;;;12.97;7.70;;;8.80;99.90;;;;;;2074350;28;20325;-81
2023/10/01 01:50:18;;;;;;;13.95;8.13;;;8.70;99.90;;;;;;2074123;28;20243;-82
2023/10/01 01:51:20;;;;;;;13.35;8.18;;;8.80;99.90;;;;;;2063975;28;20232;-82
2023/10/01 01:52:21;;;;;;;12.55;7.13;;;8.80;99.90;;;;;;2073974;28;20188;-81
2023/10/01 01:53:22;;;;;;;13.13;7.10;;;8.80;99.90;;;;;;2074331;28;20192;-81
2023/10/01 01:54:39;;;;;;;11.97;7.60;;;8.80;99.90;;;;;;2065442;28;20196;-81
2023/10/01 01:55:42;;;;;;;12.75;7.25;;;8.80;99.90;;;;;;2075426;28;20295;-82
2023/10/01 01:56:45;;;;;;;14.20;7.72;;;8.70;99.90;;;;;;2073676;28;20232;-82
2023/10/01 01:58:02;;;;;;;11.60;7.22;;;8.60;99.90;;;;;;2074343;28;20224;-81
2023/10/01 01:59:13;;;;;;;14.63;7.88;;;8.70;99.90;;;;;;2073974;28;20224;-81
2023/10/01 02:00:14;;;;;;;16.77;7.93;;;8.80;99.90;;;;;;2070850;28;20217;-81
2023/10/01 02:01:17;;;;;;;13.77;7.40;;;8.70;99.90;;;;;;2075741;28;20195;-81
2023/10/01 02:02:19;;;;;;;11.38;7.28;;;8.70;99.90;;;;;;2067250;28;20315;-81
2023/10/01 02:03:20;;;;;;;16.27;8.38;;;8.80;99.90;;;;;;2067766;28;20203;-81
2023/10/01 02:04:22;;;;;;;15.20;8.27;;;8.80;99.90;;;;;;2076076;28;20580;-81
2023/10/01 02:05:27;;;;;;;13.52;8.23;;;8.80;99.90;;;;;;2075331;28;20661;-81
2023/10/01 02:06:28;;;;;;;12.25;7.20;;;8.70;99.90;;;;;;2076598;28;20231;-81
2023/10/01 02:07:33;;;;;;;13.57;7.47;;;8.90;99.90;;;;;;2076019;28;20613;-81
2023/10/01 02:08:44;;;;;;;13.27;7.72;;;8.80;99.90;;;;;;2074798;28;20236;-80
2023/10/01 02:09:45;;;;;;;12.82;7.45;;;8.80;99.90;;;;;;2082827;28;20239;-80
2023/10/01 02:10:46;;;;;;;15.38;8.27;;;8.80;99.90;;;;;;2079372;28;20280;-81
2023/10/01 02:11:50;;;;;;;15.03;8.13;;;8.80;99.90;;;;;;2071769;28;20225;-81
2023/10/01 02:12:50;;;;;;;15.60;7.97;;;8.80;99.90;;;;;;2076572;28;20303;-81
2023/10/01 02:13:54;;;;;;;17.33;8.50;;;8.70;99.90;;;;;;2085768;28;20225;-82
2023/10/01 02:14:56;;;;;;;14.70;8.38;;;8.80;99.90;;;;;;2076670;28;20237;-81
2023/10/01 02:16:18;;;;;;;15.02;8.10;;;8.80;99.90;;;;;;2076282;28;20236;-84
2023/10/01 02:17:17;;;;;;;12.10;7.85;;;8.80;99.90;;;;;;2073841;28;20278;-84
2023/10/01 02:18:18;;;;;;;12.03;8.20;;;8.80;99.90;;;;;;2076257;28;20199;-84
2023/10/01 02:19:18;;;;;;;15.10;8.77;;;8.80;99.90;;;;;;2073226;28;20287;-81
2023/10/01 02:20:26;;;;;;;14.53;7.77;;;8.80;99.90;;;;;;2076361;28;20219;-81
2023/10/01 02:21:43;;;;;;;14.13;8.70;;;8.80;99.90;;;;;;2077638;28;20239;-82
2023/10/01 02:22:43;;;;;;;13.45;8.27;;;8.80;99.90;;;;;;2077680;28;20292;-81
2023/10/01 02:23:44;;;;;;;16.23;8.87;;;8.80;99.90;;;;;;2076074;28;20228;-82
2023/10/01 02:24:45;;;;;;;12.83;8.27;;;8.80;99.90;;;;;;2068125;28;20256;-82
2023/10/01 02:25:46;;;;;;;15.27;8.07;;;8.80;99.90;;;;;;2076346;28;20708;-81
2023/10/01 02:26:47;;;;;;;13.40;7.97;;;8.70;99.90;;;;;;2076800;28;20232;-80
2023/10/01 02:28:10;;;;;;;11.60;6.95;;;8.80;99.90;;;;;;2076088;28;20235;-82
2023/10/01 02:29:13;;;;;;;11.00;6.80;;;8.70;99.90;;;;;;2073393;28;20268;-82
2023/10/01 02:30:21;;;;;;;14.90;7.32;;;8.60;99.90;;;;;;2076994;28;20245;-82
2023/10/01 02:31:22;;;;;;;12.07;8.05;;;8.60;99.90;;;;;;2076884;28;20195;-82
2023/10/01 02:32:24;;;;;;;12.40;7.35;;;8.60;99.90;;;;;;2077075;28;20177;-82
2023/10/01 02:33:33;;;;;;;12.10;7.45;;;8.70;99.90;;;;;;2076529;28;20779;-82
2023/10/01 02:34:36;;;;;;;12.93;7.65;;;8.60;99.90;;;;;;2075951;28;20236;-83
2023/10/01 02:35:40;;;;;;;12.95;7.57;;;8.60;99.90;;;;;;2074847;28;20232;-82
2023/10/01 02:36:42;;;;;;;12.20;7.43;;;8.60;99.90;;;;;;2068272;28;20236;-83
2023/10/01 02:37:43;;;;;;;14.10;7.80;;;8.50;99.90;;;;;;2066936;28;20243;-83
2023/10/01 02:38:45;;;;;;;16.43;7.97;;;8.50;99.90;;;;;;2075713;28;20776;-83
2023/10/01 02:39:46;;;;;;;16.42;8.77;;;8.50;99.90;;;;;;2074787;28;20237;-81
2023/10/01 02:40:48;;;;;;;13.37;8.33;;;8.50;99.90;;;;;;2067183;28;20222;-83
2023/10/01 02:43:12;;;;;;;14.27;7.85;;;8.60;99.90;;;;;;2072261;28;20238;-83
2023/10/01 02:44:13;;;;;;;14.15;7.90;;;8.60;99.90;;;;;;2075265;28;20198;-83
2023/10/01 02:45:32;;;;;;;14.17;8.23;;;8.60;99.90;;;;;;2075211;28;20194;-83
2023/10/01 02:46:33;;;;;;;14.20;7.68;;;8.60;99.90;;;;;;2076825;28;20233;-83
2023/10/01 02:47:34;;;;;;;15.85;8.40;;;8.60;99.90;;;;;;2073840;28;20687;-82
2023/10/01 02:48:36;;;;;;;14.53;7.97;;;8.60;99.90;;;;;;2067548;28;20235;-82
2023/10/01 02:49:47;;;;;;;14.80;8.63;;;8.60;99.90;;;;;;2067463;28;20238;-83
2023/10/01 02:50:52;;;;;;;18.77;8.05;;;8.60;99.90;;;;;;2065687;28;20235;-83
2023/10/01 02:51:53;;;;;;;14.40;7.95;;;8.60;99.90;;;;;;2075305;28;20285;-83
2023/10/01 02:52:55;;;;;;;16.60;8.63;;;8.50;99.90;;;;;;2073803;28;20226;-83
2023/10/01 02:54:11;;;;;;;15.15;7.88;;;8.60;99.90;;;;;;2076128;28;20226;-82
2023/10/01 02:55:17;;;;;;;14.80;8.02;;;8.60;99.90;;;;;;2074301;28;20289;-82
2023/10/01 02:56:18;;;;;;;11.10;7.00;;;8.60;99.90;;;;;;2075015;28;20268;-82
2023/10/01 02:57:26;;;;;;;13.03;7.60;;;8.60;99.90;;;;;;2074733;28;20205;-83
2023/10/01 02:58:27;;;;;;;11.85;7.00;;;8.60;99.90;;;;;;2072216;28;20297;-82
2023/10/01 02:59:28;;;;;;;11.57;7.13;;;8.60;99.90;;;;;;2066932;28;20287;-82
2023/10/01 03:00:33;;;;;;;11.43;7.13;;;8.50;99.90;;;;;;2066778;28;20242;-82
2023/10/01 03:01:36;;;;;;;12.55;7.25;;;8.40;99.90;;;;;;2075306;28;20658;-82
2023/10/01 03:02:41;;;;;;;11.18;7.53;;;8.40;99.90;;;;;;2075981;28;20290;-82
2023/10/01 03:03:42;;;;;;;12.05;6.80;;;8.50;99.90;;;;;;2075555;28;20786;-83
2023/10/01 03:04:42;;;;;;;13.17;7.63;;;8.50;99.90;;;;;;2076450;28;20232;-83
2023/10/01 03:05:47;;;;;;;12.47;7.33;;;8.40;99.90;;;;;;2075592;28;20229;-83
2023/10/01 03:06:54;;;;;;;15.40;8.05;;;8.50;99.90;;;;;;2075494;28;20246;-83
2023/10/01 03:08:26;;;;;;;12.15;7.72;;;8.40;99.90;;;;;;2066898;28;20239;-83
2023/10/01 03:09:28;;;;;;;12.27;7.25;;;8.40;99.90;;;;;;2072337;28;20749;-83
2023/10/01 03:10:31;;;;;;;14.98;7.80;;;8.40;99.90;;;;;;2072941;28;20237;-83
2023/10/01 03:11:40;;;;;;;12.45;7.10;;;8.40;99.90;;;;;;2075305;28;20311;-83
2023/10/01 03:12:42;;;;;;;13.73;7.65;;;8.40;99.90;;;;;;2074071;28;20235;-83
2023/10/01 03:13:48;;;;;;;13.88;8.20;;;8.50;99.90;;;;;;2074267;28;20230;-83
2023/10/01 03:15:00;;;;;;;13.30;8.40;;;8.50;99.90;;;;;;2067564;28;20227;-85
2023/10/01 03:17:22;;;;;;;10.90;7.18;;;8.30;99.90;;;;;;2074364;28;20218;-82
2023/10/01 03:19:26;;;;;;;16.17;7.83;;;8.40;99.90;;;;;;2074710;28;20235;-83
2023/10/01 03:23:01;;;;;;;15.10;8.57;;;8.40;99.90;;;;;;2076588;28;20231;-81
2023/10/01 03:24:02;;;;;;;16.77;8.30;;;8.40;99.90;;;;;;2074353;28;20705;-83
2023/10/01 03:25:28;;;;;;;13.27;8.03;;;8.40;99.90;;;;;;2067044;28;20226;-82
2023/10/01 03:26:25;;;;;;;15.15;8.15;;;8.40;99.90;;;;;;2070577;28;20446;-82
2023/10/01 03:27:27;;;;;;;16.38;9.23;;;8.50;99.90;;;;;;2075563;28;20801;-81
2023/10/01 03:29:15;;;;;;;14.45;8.60;;;8.40;99.90;;;;;;2074733;28;20235;-82
2023/10/01 03:30:09;;;;;;;13.45;7.68;;;8.50;99.90;;;;;;2075286;28;20267;-82
2023/10/01 03:31:12;;;;;;;12.20;7.10;;;8.50;99.90;;;;;;2072705;28;20237;-82
2023/10/01 03:32:28;;;;;;;14.93;7.65;;;8.40;99.90;;;;;;2068403;28;20216;-83
2023/10/01 03:33:30;;;;;;;13.57;7.93;;;8.50;99.90;;;;;;2073082;28;20280;-82
2023/10/01 03:34:31;;;;;;;13.07;8.13;;;8.40;99.90;;;;;;2066723;28;20235;-83
2023/10/01 03:35:31;;;;;;;13.43;7.67;;;8.40;99.90;;;;;;2066359;28;20225;-83
2023/10/01 03:36:32;;;;;;;13.13;8.10;;;8.40;99.90;;;;;;2063357;28;20247;-82
2023/10/01 03:37:39;;;;;;;13.98;8.30;;;8.40;99.90;;;;;;2074450;28;20227;-83
2023/10/01 03:38:48;;;;;;;12.52;7.65;;;8.50;99.90;;;;;;2082323;28;20262;-83
2023/10/01 03:39:52;;;;;;;11.38;6.90;;;8.30;99.90;;;;;;2073549;28;20723;-83
2023/10/01 03:41:00;;;;;;;15.05;7.80;;;8.40;99.90;;;;;;2066863;28;20284;-82
2023/10/01 03:43:35;;;;;;;11.27;7.10;;;8.30;99.90;;;;;;2069345;28;20236;-82
2023/10/01 03:45:55;;;;;;;11.77;7.35;;;8.30;99.90;;;;;;2075997;28;20236;-83
2023/10/01 03:46:56;;;;;;;10.25;6.80;;;8.30;99.90;;;;;;2073622;28;20221;-83
2023/10/01 03:47:59;;;;;;;10.77;7.27;;;8.30;99.90;;;;;;2074709;28;20225;-83
2023/10/01 03:50:21;;;;;;;12.77;7.53;;;8.30;99.90;;;;;;2071958;28;20219;-83
2023/10/01 03:51:28;;;;;;;12.35;7.30;;;8.30;99.90;;;;;;2073921;28;20198;-82
2023/10/01 03:52:29;;;;;;;13.68;7.78;;;8.30;99.90;;;;;;2071389;28;20260;-82
2023/10/01 03:53:32;;;;;;;15.35;7.53;;;8.30;99.90;;;;;;2072284;28;20230;-83
2023/10/01 03:55:54;;;;;;;11.77;7.25;;;8.30;99.90;;;;;;2070866;28;20225;-81
2023/10/01 03:56:58;;;;;;;12.93;7.60;;;8.30;99.90;;;;;;2073061;28;20399;-82
2023/10/01 03:59:15;;;;;;;11.63;7.15;;;8.20;99.90;;;;;;2068694;28;20302;-82
2023/10/01 04:00:29;;;;;;;13.13;7.47;;;8.20;99.90;;;;;;2073151;28;20233;-83
2023/10/01 04:01:58;;;;;;;15.13;7.47;;;8.20;99.90;;;;;;2072357;28;20243;-82
2023/10/01 04:02:56;;;;;;;12.30;6.72;;;8.20;99.90;;;;;;2072849;28;20231;-82
2023/10/01 04:04:00;;;;;;;14.17;7.47;;;8.20;99.90;;;;;;2076175;28;20280;-82
2023/10/01 04:05:05;;;;;;;12.93;6.97;;;8.20;99.90;;;;;;2081682;28;20313;-83
2023/10/01 04:06:06;;;;;;;14.52;7.28;;;8.20;99.90;;;;;;2076841;28;20221;-83
2023/10/01 04:07:10;;;;;;;13.05;7.53;;;8.20;99.90;;;;;;2076498;28;20186;-83
2023/10/01 04:08:12;;;;;;;12.52;7.32;;;8.20;99.90;;;;;;2077004;28;20187;-82
2023/10/01 04:09:18;;;;;;;13.80;7.80;;;8.20;99.90;;;;;;2075436;28;20186;-83
2023/10/01 04:11:49;;;;;;;14.15;8.25;;;8.20;99.90;;;;;;2075003;28;20241;-83
2023/10/01 04:12:58;;;;;;;14.57;7.30;;;8.20;99.90;;;;;;2075721;28;20233;-82
2023/10/01 04:14:07;;;;;;;12.77;7.15;;;8.20;99.90;;;;;;2075446;28;20232;-83
2023/10/01 04:15:09;;;;;;;11.57;7.13;;;8.20;99.90;;;;;;2075836;28;20292;-83
2023/10/01 04:16:15;;;;;;;15.23;7.60;;;8.20;99.90;;;;;;2080449;28;20182;-82
2023/10/01 04:17:19;;;;;;;16.88;8.23;;;8.20;99.90;;;;;;2080835;28;20186;-82
2023/10/01 04:18:21;;;;;;;15.93;8.10;;;8.20;99.90;;;;;;2080402;28;20186;-82
2023/10/01 04:19:24;;;;;;;15.18;8.57;;;8.20;99.90;;;;;;2078946;28;20175;-83
2023/10/01 04:20:28;;;;;;;15.80;8.38;;;8.20;99.90;;;;;;2075397;28;20679;-83
2023/10/01 04:21:29;;;;;;;17.33;8.50;;;8.20;99.90;;;;;;2075001;28;20293;-83
2023/10/01 04:22:29;;;;;;;13.83;8.10;;;8.20;99.90;;;;;;2074859;28;20260;-82
2023/10/01 04:23:32;;;;;;;12.60;7.23;;;8.20;99.90;;;;;;2075534;28;20230;-83
2023/10/01 04:24:32;;;;;;;12.98;8.15;;;8.20;99.90;;;;;;2076097;28;20254;-82
2023/10/01 04:25:38;;;;;;;13.90;7.70;;;8.20;99.90;;;;;;2074718;28;20253;-83
2023/10/01 04:26:38;;;;;;;14.00;8.07;;;8.30;99.90;;;;;;2073408;28;20222;-83
2023/10/01 04:27:42;;;;;;;16.57;8.30;;;8.30;99.90;;;;;;2074207;28;20283;-82
2023/10/01 04:28:44;;;;;;;14.82;7.70;;;8.30;99.90;;;;;;2074499;28;20661;-83
2023/10/01 04:29:45;;;;;;;15.05;8.68;;;8.30;99.90;;;;;;2073915;28;20236;-83
2023/10/01 04:30:51;;;;;;;15.93;8.33;;;8.30;99.90;;;;;;2066577;28;20790;-83
2023/10/01 04:31:55;;;;;;;14.75;7.93;;;8.30;99.90;;;;;;2066977;28;20266;-83
2023/10/01 04:32:58;;;;;;;13.55;8.23;;;8.30;99.90;;;;;;2065960;28;20679;-83
2023/10/01 04:34:01;;;;;;;15.13;7.88;;;8.30;99.90;;;;;;2066275;28;20233;-83
2023/10/01 04:35:14;;;;;;;14.00;7.97;;;8.30;99.90;;;;;;2064277;28;20227;-82
2023/10/01 04:36:16;;;;;;;16.90;8.80;;;8.30;99.90;;;;;;2074193;28;20230;-83
2023/10/01 04:37:36;;;;;;;15.77;8.32;;;8.20;99.90;;;;;;2083632;28;20185;-83
2023/10/01 04:38:38;;;;;;;14.10;7.75;;;8.30;99.90;;;;;;2073121;28;20239;-83
2023/10/01 04:39:39;;;;;;;12.73;7.13;;;8.20;99.90;;;;;;2074222;28;20289;-82
2023/10/01 04:40:46;;;;;;;11.93;7.10;;;8.20;99.90;;;;;;2073464;28;20231;-83
2023/10/01 04:41:46;;;;;;;12.27;7.53;;;8.30;99.90;;;;;;2075216;28;20378;-83
2023/10/01 04:42:49;;;;;;;14.40;8.10;;;8.20;99.90;;;;;;2073310;28;20240;-83
2023/10/01 04:43:55;;;;;;;17.63;8.40;;;8.20;99.90;;;;;;2073633;28;20255;-83
2023/10/01 04:44:56;;;;;;;13.48;7.40;;;8.20;99.90;;;;;;2065497;28;20241;-82
2023/10/01 04:45:58;;;;;;;13.37;7.60;;;8.20;99.90;;;;;;2065596;28;20236;-83
2023/10/01 04:47:24;;;;;;;15.00;8.27;;;8.20;99.90;;;;;;2073998;28;20226;-83
2023/10/01 04:48:23;;;;;;;12.45;7.18;;;8.20;99.90;;;;;;2071194;28;20291;-83
2023/10/01 04:49:41;;;;;;;13.60;7.32;;;8.20;99.90;;;;;;2073911;28;20199;-83
2023/10/01 04:50:43;;;;;;;11.50;7.05;;;8.20;99.90;;;;;;2067945;28;20715;-82
2023/10/01 04:51:47;;;;;;;12.77;7.72;;;8.20;99.90;;;;;;2066324;28;20230;-82
2023/10/01 04:52:47;;;;;;;14.57;8.32;;;8.20;99.90;;;;;;2064411;28;20227;-83
2023/10/01 04:53:59;;;;;;;13.50;8.00;;;8.10;99.90;;;;;;2073898;28;20251;-83
2023/10/01 04:55:01;;;;;;;14.15;7.07;;;8.10;99.90;;;;;;2074835;28;20232;-82
2023/10/01 04:56:05;;;;;;;14.77;8.05;;;8.20;99.90;;;;;;2064865;28;20223;-81
2023/10/01 04:57:06;;;;;;;15.90;8.63;;;8.10;99.90;;;;;;2065725;28;20238;-82
2023/10/01 04:58:14;;;;;;;16.45;8.77;;;8.10;99.90;;;;;;2065138;28;20182;-82
2023/10/01 04:59:16;;;;;;;15.25;7.75;;;8.10;99.90;;;;;;2075287;28;20209;-82
2023/10/01 05:00:21;;;;;;;15.73;8.18;;;8.10;99.90;;;;;;2073991;28;20188;-83
2023/10/01 05:01:25;;;;;;;15.32;8.70;;;8.10;99.90;;;;;;2074961;28;20621;-82
2023/10/01 05:02:26;;;;;;;13.45;7.63;;;8.00;99.90;;;;;;2082556;28;20264;-82
2023/10/01 05:03:38;;;;;;;14.77;8.07;;;8.00;99.90;;;;;;2073912;28;20223;-82
2023/10/01 05:04:41;;;;;;;17.50;7.90;;;8.10;99.90;;;;;;2073851;28;20233;-81
2023/10/01 05:05:48;;;;;;;13.82;8.15;;;8.00;99.90;;;;;;2073180;28;20309;-82
2023/10/01 05:07:00;;;;;;;14.25;7.95;;;8.00;99.90;;;;;;2066519;28;20793;-83
2023/10/01 05:08:01;;;;;;;16.13;8.13;;;8.00;99.90;;;;;;2065644;28;20227;-82
2023/10/01 05:09:02;;;;;;;13.55;7.65;;;8.10;99.90;;;;;;2073979;28;20225;-83
2023/10/01 05:10:04;;;;;;;14.63;8.13;;;8.10;99.90;;;;;;2073488;28;20227;-83
2023/10/01 05:11:10;;;;;;;16.42;8.18;;;8.10;99.90;;;;;;2072286;28;20241;-83
2023/10/01 05:12:12;;;;;;;18.27;8.25;;;8.10;99.90;;;;;;2072197;28;20185;-83
2023/10/01 05:13:13;;;;;;;13.35;7.97;;;8.10;99.90;;;;;;2071962;28;20606;-83
2023/10/01 05:14:15;;;;;;;15.77;7.53;;;8.10;99.90;;;;;;2072812;28;20197;-83
2023/10/01 05:15:24;;;;;;;14.60;7.95;;;8.10;99.90;;;;;;2066021;28;20193;-83
2023/10/01 05:16:31;;;;;;;14.40;7.50;;;8.10;99.90;;;;;;2067516;28;20406;-83
2023/10/01 05:17:33;;;;;;;13.02;7.00;;;8.10;99.90;;;;;;2067133;28;20226;-83
2023/10/01 05:18:34;;;;;;;12.15;6.53;;;8.00;99.90;;;;;;2072735;28;20406;-82
2023/10/01 05:19:37;;;;;;;14.33;8.40;;;8.00;99.90;;;;;;2074887;28;20226;-83
2023/10/01 05:20:38;;;;;;;14.55;7.40;;;8.10;99.90;;;;;;2071168;28;20313;-83
2023/10/01 05:21:46;;;;;;;12.17;7.23;;;8.10;99.90;;;;;;2072511;28;20643;-83
2023/10/01 05:22:50;;;;;;;13.57;7.55;;;8.10;99.90;;;;;;2071243;28;20229;-83
2023/10/01 05:23:55;;;;;;;16.45;8.27;;;8.00;99.90;;;;;;2065085;28;20249;-82
2023/10/01 05:24:56;;;;;;;15.45;7.93;;;7.90;99.90;;;;;;2073730;28;20221;-83
2023/10/01 05:25:57;;;;;;;14.10;7.80;;;8.00;99.90;;;;;;2069981;28;20225;-82
2023/10/01 05:27:00;;;;;;;14.23;8.53;;;8.00;99.90;;;;;;2074157;28;20254;-83
2023/10/01 05:28:03;;;;;;;14.98;7.88;;;8.00;99.90;;;;;;2073126;28;20229;-82
2023/10/01 05:29:06;;;;;;;17.88;9.00;;;8.00;99.90;;;;;;2072275;28;20312;-83
2023/10/01 05:30:32;;;;;;;13.60;7.78;;;8.10;99.90;;;;;;2071436;28;20694;-83
2023/10/01 05:31:29;;;;;;;14.95;8.02;;;8.20;99.90;;;;;;2073256;28;20316;-83
2023/10/01 05:32:48;;;;;;;14.50;8.45;;;8.20;99.90;;;;;;2074258;28;20466;-83
2023/10/01 05:33:52;;;;;;;15.05;7.43;;;8.20;99.90;;;;;;2073533;28;20228;-82
2023/10/01 05:34:52;;;;;;;14.95;7.43;;;8.20;99.90;;;;;;2065485;28;20664;-82
2023/10/01 05:36:00;;;;;;;12.57;7.40;;;8.20;99.90;;;;;;2065136;28;20232;-82
2023/10/01 05:37:12;;;;;;;15.45;7.88;;;8.20;99.90;;;;;;2066257;28;20230;-82
2023/10/01 05:38:14;;;;;;;13.32;7.50;;;8.20;99.90;;;;;;2061453;28;20312;-82
2023/10/01 05:39:16;;;;;;;13.43;7.60;;;8.30;99.90;;;;;;2072314;28;20192;-82
2023/10/01 05:40:17;;;;;;;16.27;8.40;;;8.30;99.90;;;;;;2074629;28;20204;-82
2023/10/01 05:41:29;;;;;;;15.13;7.63;;;8.30;99.90;;;;;;2073722;28;20638;-82
2023/10/01 05:42:31;;;;;;;15.98;7.13;;;8.20;99.90;;;;;;2073202;28;20300;-82
2023/10/01 05:43:43;;;;;;;15.65;8.55;;;8.30;99.90;;;;;;2073500;28;20245;-82
2023/10/01 05:44:44;;;;;;;13.40;7.53;;;8.20;99.90;;;;;;2074269;28;20230;-82
2023/10/01 05:45:52;;;;;;;12.57;6.63;;;8.30;99.90;;;;;;2074189;28;20241;-82
2023/10/01 05:46:53;;;;;;;12.57;7.88;;;8.30;99.90;;;;;;2073286;28;20223;-82
2023/10/01 05:47:54;;;;;;;14.57;7.83;;;8.30;99.90;;;;;;2073706;28;20339;-82
2023/10/01 05:49:00;;;;;;;14.45;7.82;;;8.30;99.90;;;;;;2073127;28;20227;-82
2023/10/01 05:50:08;;;;;;;12.25;7.43;;;8.40;99.90;;;;;;2066236;28;20245;-82
2023/10/01 05:51:20;;;;;;;17.33;7.35;;;8.30;99.90;;;;;;2065282;28;20269;-82